Time;durP1;ratioP1;P1;durP2;ratioP2;P2;SDS_P1;SDS_P2;PMS_P1;PMS_P2;Temp;Humidity;BMP_temperature;BMP_pressure;BME280_temperature;BME280_humidity;BME280_pressure;Samples;Min_cycle;Max_cycle;Signal;HPM_P1;HPM_P2
2023/12/01 00:00:17;;;;;;;;;;;-5.40;99.90;;;;;;5100865;28;19911;-85
2023/12/01 00:02:42;;;;;;;;;;;-5.50;99.90;;;;;;5101751;28;20265;-86
2023/12/01 00:05:08;;;;;;;;;;;-5.30;99.90;;;;;;5093727;28;20433;-86
2023/12/01 00:07:33;;;;;;;;;;;-5.40;99.90;;;;;;5110671;28;20383;-85
2023/12/01 00:09:59;;;;;;;;;;;-5.50;99.90;;;;;;5098358;28;20363;-86
2023/12/01 00:12:24;;;;;;;;;;;-5.50;99.90;;;;;;5088373;28;20288;-85
2023/12/01 00:14:50;;;;;;;;;;;-5.40;99.90;;;;;;5101214;28;19911;-86
2023/12/01 00:17:15;;;;;;;;;;;-5.30;99.90;;;;;;5103682;28;20089;-86
2023/12/01 00:19:41;;;;;;;;;;;-5.40;99.90;;;;;;5097512;28;19920;-86
2023/12/01 00:22:06;;;;;;;;;;;-5.40;99.90;;;;;;5094557;28;19927;-86
2023/12/01 00:24:33;;;;;;;;;;;-5.40;99.90;;;;;;5100770;28;19920;-86
2023/12/01 00:26:58;;;;;;;;;;;-5.30;99.90;;;;;;5104353;28;19981;-86
2023/12/01 00:29:24;;;;;;;;;;;-5.40;99.90;;;;;;5105083;28;20409;-87
2023/12/01 00:31:49;;;;;;;;;;;-5.30;99.90;;;;;;5093551;28;19912;-86
2023/12/01 00:34:15;;;;;;;;;;;-5.30;99.90;;;;;;5090015;28;19989;-86
2023/12/01 00:36:40;;;;;;;;;;;-5.30;99.90;;;;;;5089902;28;19919;-87
2023/12/01 00:39:06;;;;;;;;;;;-5.20;99.90;;;;;;5091455;28;20352;-87
2023/12/01 00:41:32;;;;;;;;;;;-5.10;99.90;;;;;;5090156;28;20292;-86
2023/12/01 00:43:57;;;;;;;;;;;-5.20;99.90;;;;;;5091174;28;19916;-87
2023/12/01 00:46:23;;;;;;;;;;;-5.10;99.90;;;;;;5098961;28;22972;-86
2023/12/01 00:48:48;;;;;;;;;;;-5.10;99.90;;;;;;5103351;28;19916;-86
2023/12/01 00:51:15;;;;;;;;;;;-5.00;99.90;;;;;;5098724;28;19918;-86
2023/12/01 00:53:40;;;;;;;;;;;-5.10;99.90;;;;;;5110323;28;19916;-86
2023/12/01 00:56:06;;;;;;;;;;;-5.00;99.90;;;;;;5095445;28;20394;-86
2023/12/01 00:58:32;;;;;;;;;;;-5.00;99.90;;;;;;5110558;28;19912;-85
2023/12/01 01:00:57;;;;;;;;;;;-5.00;99.90;;;;;;5105854;28;20492;-87
2023/12/01 01:03:23;;;;;;;;;;;-5.00;99.90;;;;;;5096481;28;19920;-86
2023/12/01 01:05:48;;;;;;;;;;;-4.90;99.90;;;;;;5094554;28;20257;-86
2023/12/01 01:08:13;;;;;;;;;;;-4.80;99.90;;;;;;5107930;28;20268;-87
2023/12/01 01:10:39;;;;;;;;;;;-4.70;99.90;;;;;;5099130;28;19925;-86
2023/12/01 01:13:04;;;;;;;;;;;-4.80;99.90;;;;;;5095476;28;20415;-86
2023/12/01 01:15:30;;;;;;;;;;;-5.00;99.90;;;;;;5095293;28;20254;-86
2023/12/01 01:17:55;;;;;;;;;;;-5.00;99.90;;;;;;5098288;28;19968;-87
2023/12/01 01:20:21;;;;;;;;;;;-4.90;99.90;;;;;;5091426;28;20007;-86
2023/12/01 01:22:46;;;;;;;;;;;-5.00;99.90;;;;;;5118021;27;20372;-86
2023/12/01 01:25:12;;;;;;;;;;;-5.00;99.90;;;;;;5095696;28;20420;-87
2023/12/01 01:27:37;;;;;;;;;;;-4.90;99.90;;;;;;5094821;28;20034;-86
2023/12/01 01:30:03;;;;;;;;;;;-5.00;99.90;;;;;;5102656;28;20631;-86
2023/12/01 01:32:29;;;;;;;;;;;-5.00;99.90;;;;;;5094525;28;19912;-87
2023/12/01 01:34:54;;;;;;;;;;;-5.00;99.90;;;;;;5104641;28;19912;-86
2023/12/01 01:37:19;;;;;;;;;;;-4.90;99.90;;;;;;5092967;28;19908;-86
2023/12/01 01:39:45;;;;;;;;;;;-4.90;99.90;;;;;;5098421;28;19974;-86
2023/12/01 01:42:10;;;;;;;;;;;-4.90;99.90;;;;;;5100313;28;19950;-87
2023/12/01 01:44:36;;;;;;;;;;;-5.00;99.90;;;;;;5106883;28;19919;-87
2023/12/01 01:47:02;;;;;;;;;;;-5.00;99.90;;;;;;5110464;28;19919;-86
2023/12/01 01:49:27;;;;;;;;;;;-4.90;99.90;;;;;;5092580;28;19973;-86
2023/12/01 01:51:53;;;;;;;;;;;-4.80;99.90;;;;;;5095999;28;20038;-86
2023/12/01 01:54:21;;;;;;;;;;;-4.80;99.90;;;;;;5104494;28;19963;-86
2023/12/01 01:56:47;;;;;;;;;;;-5.00;99.90;;;;;;5092589;28;20404;-86
2023/12/01 01:59:13;;;;;;;;;;;-4.90;99.90;;;;;;5105041;28;19941;-87
2023/12/01 02:01:39;;;;;;;;;;;-4.70;99.90;;;;;;5099541;28;20006;-87
2023/12/01 02:04:07;;;;;;;;;;;-4.70;99.90;;;;;;5097799;28;20332;-86
2023/12/01 02:06:33;;;;;;;;;;;-4.90;99.90;;;;;;5099254;28;19920;-86
2023/12/01 02:08:59;;;;;;;;;;;-4.80;99.90;;;;;;5097749;28;20249;-87
2023/12/01 02:11:25;;;;;;;;;;;-5.00;99.90;;;;;;5112082;28;19918;-86
2023/12/01 02:13:51;;;;;;;;;;;-4.90;99.90;;;;;;5093257;28;20368;-86
2023/12/01 02:16:17;;;;;;;;;;;-4.80;99.90;;;;;;5103425;28;19916;-86
2023/12/01 02:18:42;;;;;;;;;;;-4.80;99.90;;;;;;5103283;28;20422;-86
2023/12/01 02:21:08;;;;;;;;;;;-4.80;99.90;;;;;;5104286;28;19915;-86
2023/12/01 02:23:33;;;;;;;;;;;-4.90;99.90;;;;;;5112113;28;19916;-87
2023/12/01 02:25:58;;;;;;;;;;;-4.80;99.90;;;;;;5111941;28;19926;-85
2023/12/01 02:28:24;;;;;;;;;;;-4.90;99.90;;;;;;5111117;28;19945;-85
2023/12/01 02:30:51;;;;;;;;;;;-5.00;99.90;;;;;;5103423;28;19916;-86
2023/12/01 02:33:17;;;;;;;;;;;-4.90;99.90;;;;;;5101489;28;19912;-86
2023/12/01 02:35:46;;;;;;;;;;;-4.90;99.90;;;;;;5108238;28;19927;-85
2023/12/01 02:38:12;;;;;;;;;;;-4.90;99.90;;;;;;5076716;28;19920;-86
2023/12/01 02:40:42;;;;;;;;;;;-4.90;99.90;;;;;;5090173;28;20512;-86
2023/12/01 02:43:08;;;;;;;;;;;-5.00;99.90;;;;;;5093962;28;19924;-86
2023/12/01 02:45:34;;;;;;;;;;;-4.90;99.90;;;;;;5096212;28;20009;-86
2023/12/01 02:47:59;;;;;;;;;;;-4.90;99.90;;;;;;5107250;28;19916;-86
2023/12/01 02:50:25;;;;;;;;;;;-5.00;99.90;;;;;;5104791;28;19912;-86
2023/12/01 02:52:50;;;;;;;;;;;-5.10;99.90;;;;;;5096141;28;19924;-85
2023/12/01 02:55:16;;;;;;;;;;;-5.10;99.90;;;;;;5088366;28;19920;-86
2023/12/01 02:57:45;;;;;;;;;;;-5.10;99.90;;;;;;5093314;28;19919;-86
2023/12/01 03:00:13;;;;;;;;;;;-5.10;99.90;;;;;;5096098;28;19993;-86
2023/12/01 03:02:42;;;;;;;;;;;-5.10;99.90;;;;;;5109669;28;19953;-85
2023/12/01 03:05:08;;;;;;;;;;;-5.00;99.90;;;;;;5102021;28;19965;-85
2023/12/01 03:07:35;;;;;;;;;;;-5.10;99.90;;;;;;5110913;28;19968;-86
2023/12/01 03:10:01;;;;;;;;;;;-5.10;99.90;;;;;;5098001;28;19961;-85
2023/12/01 03:12:26;;;;;;;;;;;-5.00;99.90;;;;;;5097313;28;20329;-85
2023/12/01 03:14:51;;;;;;;;;;;-5.20;99.90;;;;;;5105259;28;19916;-86
2023/12/01 03:17:17;;;;;;;;;;;-5.20;99.90;;;;;;5089126;28;20556;-86
2023/12/01 03:19:45;;;;;;;;;;;-5.10;99.90;;;;;;5092398;28;20307;-86
2023/12/01 03:22:11;;;;;;;;;;;-5.20;99.90;;;;;;5095158;28;19935;-86
2023/12/01 03:24:36;;;;;;;;;;;-5.20;99.90;;;;;;5099096;28;19912;-86
2023/12/01 03:27:03;;;;;;;;;;;-5.30;99.90;;;;;;5099680;28;19919;-86
2023/12/01 03:29:28;;;;;;;;;;;-5.30;99.90;;;;;;5103800;28;19915;-86
2023/12/01 03:31:53;;;;;;;;;;;-5.50;99.90;;;;;;5095711;28;20445;-85
2023/12/01 03:34:19;;;;;;;;;;;-5.60;99.90;;;;;;5094774;28;19916;-85
2023/12/01 03:36:44;;;;;;;;;;;-5.60;99.90;;;;;;5095642;28;19920;-86
2023/12/01 03:39:10;;;;;;;;;;;-5.70;99.90;;;;;;5093071;28;19912;-86
2023/12/01 03:41:35;;;;;;;;;;;-5.90;99.90;;;;;;5103667;28;19927;-86
2023/12/01 03:44:01;;;;;;;;;;;-6.00;99.90;;;;;;5098640;28;20061;-86
2023/12/01 03:46:26;;;;;;;;;;;-6.00;99.90;;;;;;5096842;28;19965;-86
2023/12/01 03:48:51;;;;;;;;;;;-6.00;99.90;;;;;;5101985;28;19912;-86
2023/12/01 03:51:19;;;;;;;;;;;-6.20;99.90;;;;;;5096675;28;20351;-85
2023/12/01 03:53:45;;;;;;;;;;;-6.20;99.90;;;;;;5108433;28;19915;-85
2023/12/01 03:56:10;;;;;;;;;;;-6.40;99.90;;;;;;5105433;28;19916;-86
2023/12/01 03:58:36;;;;;;;;;;;-6.30;99.90;;;;;;5090267;28;19939;-86
2023/12/01 04:01:05;;;;;;;;;;;-6.30;99.90;;;;;;5090875;28;19926;-86
2023/12/01 04:03:31;;;;;;;;;;;-6.30;99.90;;;;;;5090839;28;19939;-86
2023/12/01 04:06:01;;;;;;;;;;;-6.30;99.90;;;;;;5103337;28;20291;-85
2023/12/01 04:08:29;;;;;;;;;;;-6.20;99.90;;;;;;5103478;28;19923;-85
2023/12/01 04:10:55;;;;;;;;;;;-6.40;99.90;;;;;;5091400;28;19942;-85
2023/12/01 04:13:21;;;;;;;;;;;-6.60;99.90;;;;;;5087964;28;19932;-86
2023/12/01 04:15:47;;;;;;;;;;;-6.50;99.90;;;;;;5078042;28;20443;-86
2023/12/01 04:18:12;;;;;;;;;;;-6.40;99.90;;;;;;5097507;28;20015;-85
2023/12/01 04:20:41;;;;;;;;;;;-6.40;99.90;;;;;;5108451;28;19924;-85
2023/12/01 04:23:10;;;;;;;;;;;-6.40;99.90;;;;;;5098960;28;19924;-85
2023/12/01 04:25:37;;;;;;;;;;;-6.60;99.90;;;;;;5094819;28;20007;-85
2023/12/01 04:28:03;;;;;;;;;;;-6.50;99.90;;;;;;5101020;28;20003;-85
2023/12/01 04:30:29;;;;;;;;;;;-6.60;99.90;;;;;;5108567;28;19912;-85
2023/12/01 04:32:55;;;;;;;;;;;-6.70;99.90;;;;;;5092756;28;19938;-85
2023/12/01 04:35:25;;;;;;;;;;;-6.60;99.90;;;;;;5095033;28;20534;-84
2023/12/01 04:37:51;;;;;;;;;;;-6.60;99.90;;;;;;5106837;28;20035;-84
2023/12/01 04:40:16;;;;;;;;;;;-6.70;99.90;;;;;;5102273;28;20007;-84
2023/12/01 04:42:45;;;;;;;;;;;-6.70;99.90;;;;;;5101317;28;20295;-84
2023/12/01 04:45:14;;;;;;;;;;;-6.70;99.90;;;;;;5094995;28;19959;-85
2023/12/01 04:47:40;;;;;;;;;;;-6.80;99.90;;;;;;5095006;28;19958;-85
2023/12/01 04:50:12;;;;;;;;;;;-6.80;99.90;;;;;;5094863;28;19951;-85
2023/12/01 04:52:41;;;;;;;;;;;-6.70;99.90;;;;;;5100906;28;19923;-84
2023/12/01 04:55:07;;;;;;;;;;;-6.70;99.90;;;;;;5110132;28;19930;-85
2023/12/01 04:57:33;;;;;;;;;;;-6.70;99.90;;;;;;5096436;28;19938;-85
2023/12/01 04:59:58;;;;;;;;;;;-6.90;99.90;;;;;;5092917;28;19912;-85
2023/12/01 05:02:24;;;;;;;;;;;-6.70;99.90;;;;;;5107828;28;19920;-84
2023/12/01 05:04:50;;;;;;;;;;;-6.60;99.90;;;;;;5104112;28;19924;-85
2023/12/01 05:07:15;;;;;;;;;;;-6.90;99.90;;;;;;5105155;28;20295;-84
2023/12/01 05:09:41;;;;;;;;;;;-6.90;99.90;;;;;;5094260;28;19912;-85
2023/12/01 05:12:07;;;;;;;;;;;-7.00;99.90;;;;;;5093058;28;19919;-85
2023/12/01 05:14:33;;;;;;;;;;;-7.20;99.90;;;;;;5093338;28;19916;-85
2023/12/01 05:16:58;;;;;;;;;;;-7.10;99.90;;;;;;5097471;28;19923;-85
2023/12/01 05:19:23;;;;;;;;;;;-7.20;99.90;;;;;;5107193;28;19912;-85
2023/12/01 05:21:49;;;;;;;;;;;-7.00;99.90;;;;;;5091979;28;19920;-85
2023/12/01 05:24:14;;;;;;;;;;;-6.70;99.90;;;;;;5089487;28;20756;-86
2023/12/01 05:26:40;;;;;;;;;;;-6.60;99.90;;;;;;5078527;28;19916;-85
2023/12/01 05:29:12;;;;;;;;;;;-6.60;99.90;;;;;;5112827;28;19919;-85
2023/12/01 05:31:41;;;;;;;;;;;-6.80;99.90;;;;;;5098775;28;19963;-85
2023/12/01 05:34:06;;;;;;;;;;;-7.00;99.90;;;;;;5093103;28;19935;-84
2023/12/01 05:36:32;;;;;;;;;;;-7.10;99.90;;;;;;5107252;28;20357;-84
2023/12/01 05:38:57;;;;;;;;;;;-7.10;99.90;;;;;;5106376;28;20257;-84
2023/12/01 05:41:23;;;;;;;;;;;-7.20;99.90;;;;;;5103932;28;19916;-85
2023/12/01 05:43:48;;;;;;;;;;;-7.40;99.90;;;;;;5096211;28;19916;-84
2023/12/01 05:46:14;;;;;;;;;;;-7.40;99.90;;;;;;5102387;28;19912;-85
2023/12/01 05:48:39;;;;;;;;;;;-7.40;99.90;;;;;;5109089;28;19915;-84
2023/12/01 05:51:05;;;;;;;;;;;-7.50;99.90;;;;;;5108861;28;19912;-85
2023/12/01 05:53:34;;;;;;;;;;;-7.50;99.90;;;;;;5111482;28;19915;-84
2023/12/01 05:56:00;;;;;;;;;;;-7.50;99.90;;;;;;5106246;28;19911;-84
2023/12/01 05:58:25;;;;;;;;;;;-7.60;99.90;;;;;;5094218;28;20027;-84
2023/12/01 06:00:52;;;;;;;;;;;-7.70;99.90;;;;;;5094007;28;20011;-84
2023/12/01 06:03:19;;;;;;;;;;;-7.50;99.90;;;;;;5107481;28;19924;-84
2023/12/01 06:05:46;;;;;;;;;;;-7.40;99.90;;;;;;5096390;28;19942;-84
2023/12/01 06:08:11;;;;;;;;;;;-7.20;99.90;;;;;;5103965;28;20002;-85
2023/12/01 06:10:37;;;;;;;;;;;-7.10;99.90;;;;;;5101918;28;20447;-85
2023/12/01 06:13:04;;;;;;;;;;;-7.00;99.90;;;;;;5102090;28;19916;-85
2023/12/01 06:15:29;;;;;;;;;;;-6.80;99.90;;;;;;5105200;28;19935;-85
2023/12/01 06:17:57;;;;;;;;;;;-6.70;99.90;;;;;;5088456;28;20937;-85
2023/12/01 06:20:23;;;;;;;;;;;-6.70;99.90;;;;;;5098710;28;19946;-84
2023/12/01 06:22:56;;;;;;;;;;;-6.70;99.90;;;;;;5091673;28;20011;-85
2023/12/01 06:25:27;;;;;;;;;;;-6.60;99.90;;;;;;5097533;28;19912;-85
2023/12/01 06:27:52;;;;;;;;;;;-6.50;99.90;;;;;;5093415;28;20003;-86
2023/12/01 06:30:18;;;;;;;;;;;-6.50;99.90;;;;;;5092757;28;20073;-86
2023/12/01 06:32:44;;;;;;;;;;;-6.20;99.90;;;;;;5086799;28;19919;-87
2023/12/01 06:35:11;;;;;;;;;;;-6.10;99.90;;;;;;5105156;28;20010;-86
2023/12/01 06:37:37;;;;;;;;;;;-6.00;99.90;;;;;;5104628;28;19915;-87
2023/12/01 06:40:11;;;;;;;;;;;-6.10;99.90;;;;;;5097391;28;20014;-87
2023/12/01 06:42:39;;;;;;;;;;;-6.00;99.90;;;;;;5110967;28;19924;-86
2023/12/01 06:45:05;;;;;;;;;;;-6.20;99.90;;;;;;5111060;28;19912;-87
2023/12/01 06:47:32;;;;;;;;;;;-6.10;99.90;;;;;;5096423;28;19915;-88
2023/12/01 06:49:57;;;;;;;;;;;-6.10;99.90;;;;;;5093611;28;20329;-87
2023/12/01 06:52:23;;;;;;;;;;;-6.00;99.90;;;;;;5087348;28;19924;-87
2023/12/01 06:54:48;;;;;;;;;;;-6.00;99.90;;;;;;5097416;28;19965;-86
2023/12/01 06:57:14;;;;;;;;;;;-5.80;99.90;;;;;;5095676;28;19916;-87
2023/12/01 06:59:39;;;;;;;;;;;-5.80;99.90;;;;;;5092538;28;19912;-86
2023/12/01 07:02:05;;;;;;;;;;;-5.70;99.90;;;;;;5094323;28;19928;-87
2023/12/01 07:04:32;;;;;;;;;;;-5.70;99.90;;;;;;5087666;28;20006;-88
2023/12/01 07:07:00;;;;;;;;;;;-5.70;99.90;;;;;;5098579;28;20294;-88
2023/12/01 07:09:28;;;;;;;;;;;-5.60;99.90;;;;;;5093300;28;19916;-88
2023/12/01 07:11:54;;;;;;;;;;;-5.50;99.90;;;;;;5100153;28;20027;-87
2023/12/01 07:14:23;;;;;;;;;;;-5.50;99.90;;;;;;5111418;28;19940;-87
2023/12/01 07:16:49;;;;;;;;;;;-5.50;99.90;;;;;;5108415;28;19923;-88
2023/12/01 07:19:14;;;;;;;;;;;-5.50;99.90;;;;;;5083701;28;19912;-87
2023/12/01 07:21:40;;;;;;;;;;;-5.60;99.90;;;;;;5090558;28;19920;-88
2023/12/01 07:24:07;;;;;;;;;;;-5.60;99.90;;;;;;5099255;28;19968;-87
2023/12/01 07:26:33;;;;;;;;;;;-5.60;99.90;;;;;;5096115;28;19916;-87
2023/12/01 07:29:00;;;;;;;;;;;-5.60;99.90;;;;;;5092472;28;19923;-87
2023/12/01 07:31:26;;;;;;;;;;;-5.50;99.90;;;;;;5097043;28;19916;-87
2023/12/01 07:33:52;;;;;;;;;;;-5.40;99.90;;;;;;5070634;28;19932;-86
2023/12/01 07:36:17;;;;;;;;;;;-5.30;99.90;;;;;;5100695;28;19916;-86
2023/12/01 07:38:42;;;;;;;;;;;-5.30;99.90;;;;;;5100200;28;20437;-87
2023/12/01 07:41:09;;;;;;;;;;;-5.00;99.90;;;;;;5098774;28;19920;-87
2023/12/01 07:43:34;;;;;;;;;;;-5.00;99.90;;;;;;5094036;28;19926;-86
2023/12/01 07:45:59;;;;;;;;;;;-4.90;99.90;;;;;;5102346;28;20327;-86
2023/12/01 07:48:25;;;;;;;;;;;-4.90;99.90;;;;;;5102874;28;19915;-87
2023/12/01 07:50:50;;;;;;;;;;;-4.80;99.90;;;;;;5103037;28;19919;-87
2023/12/01 07:53:16;;;;;;;;;;;-4.60;99.90;;;;;;5105824;28;19912;-87
2023/12/01 07:55:42;;;;;;;;;;;-4.60;99.90;;;;;;5090182;28;20348;-87
2023/12/01 07:58:09;;;;;;;;;;;-4.60;99.90;;;;;;5087963;28;19951;-88
2023/12/01 08:00:40;;;;;;;;;;;-4.60;99.90;;;;;;5085695;28;19912;-88
2023/12/01 08:03:08;;;;;;;;;;;-4.40;99.90;;;;;;5105334;28;21290;-89
2023/12/01 08:05:34;;;;;;;;;;;-4.30;99.90;;;;;;5105206;28;20007;-88
2023/12/01 08:08:00;;;;;;;;;;;-4.30;99.90;;;;;;5090272;28;19918;-87
2023/12/01 08:10:27;;;;;;;;;;;-4.20;99.90;;;;;;5099846;28;19916;-86
2023/12/01 08:12:56;;;;;;;;;;;-4.30;99.90;;;;;;5110107;28;20359;-86
2023/12/01 08:15:22;;;;;;;;;;;-4.30;99.90;;;;;;5098120;28;20042;-87
2023/12/01 08:17:47;;;;;;;;;;;-4.20;99.90;;;;;;5091370;28;19995;-85
2023/12/01 08:20:14;;;;;;;;;;;-4.10;99.90;;;;;;5103616;28;19922;-86
2023/12/01 08:22:43;;;;;;;;;;;-4.10;99.90;;;;;;5095626;28;20445;-86
2023/12/01 08:25:09;;;;;;;;;;;-4.10;99.90;;;;;;5091466;28;19917;-86
2023/12/01 08:27:34;;;;;;;;;;;-4.10;99.90;;;;;;5089359;28;19912;-86
2023/12/01 08:30:00;;;;;;;;;;;-4.00;99.90;;;;;;5089645;28;20334;-88
2023/12/01 08:32:25;;;;;;;;;;;-4.00;99.90;;;;;;5089386;28;19923;-88
2023/12/01 08:34:51;;;;;;;;;;;-3.90;99.90;;;;;;5090614;28;19915;-88
2023/12/01 08:37:16;;;;;;;;;;;-3.90;99.90;;;;;;5087990;28;19912;-89
2023/12/01 08:39:43;;;;;;;;;;;-3.90;99.90;;;;;;5091629;28;19912;-87
2023/12/01 08:42:09;;;;;;;;;;;-3.80;99.90;;;;;;5090350;28;19928;-87
2023/12/01 08:44:34;;;;;;;;;;;-3.80;99.90;;;;;;5091858;28;20412;-88
2023/12/01 08:46:59;;;;;;;;;;;-3.70;99.90;;;;;;5089529;28;20304;-88
2023/12/01 08:49:25;;;;;;;;;;;-3.60;99.90;;;;;;5090710;28;20030;-89
2023/12/01 08:51:55;;;;;;;;;;;-3.60;99.90;;;;;;5089698;28;19927;-87
2023/12/01 08:54:21;;;;;;;;;;;-3.60;99.90;;;;;;5088766;28;19916;-88
2023/12/01 08:56:47;;;;;;;;;;;-3.50;99.90;;;;;;5094135;28;19986;-86
2023/12/01 08:59:12;;;;;;;;;;;-3.50;99.90;;;;;;5097316;28;20386;-87
2023/12/01 09:01:38;;;;;;;;;;;-3.50;99.90;;;;;;5100131;28;19923;-85
2023/12/01 09:04:03;;;;;;;;;;;-3.50;99.90;;;;;;5089852;28;19920;-87
2023/12/01 09:06:29;;;;;;;;;;;-3.40;99.90;;;;;;5093415;28;19912;-87
2023/12/01 09:08:54;;;;;;;;;;;-3.40;99.90;;;;;;5093865;28;19912;-88
2023/12/01 09:11:20;;;;;;;;;;;-3.40;99.90;;;;;;5097692;28;19969;-87
2023/12/01 09:13:46;;;;;;;;;;;-3.40;99.90;;;;;;5091328;28;19922;-87
2023/12/01 09:16:11;;;;;;;;;;;-3.30;99.90;;;;;;5087214;28;19913;-86
2023/12/01 09:18:36;;;;;;;;;;;-3.30;99.90;;;;;;5091723;28;19981;-87
2023/12/01 09:21:02;;;;;;;;;;;-3.20;99.90;;;;;;5078157;28;19919;-87
2023/12/01 09:23:28;;;;;;;;;;;-3.20;99.90;;;;;;5077116;28;19974;-86
2023/12/01 09:25:54;;;;;;;;;;;-3.10;99.90;;;;;;5088523;28;19916;-86
2023/12/01 09:28:20;;;;;;;;;;;-3.00;99.90;;;;;;5085212;28;19923;-87
2023/12/01 09:30:46;;;;;;;;;;;-3.00;99.90;;;;;;5083939;28;19971;-87
2023/12/01 09:33:11;;;;;;;;;;;-2.90;99.90;;;;;;5118682;27;20018;-86
2023/12/01 09:35:38;;;;;;;;;;;-2.80;99.90;;;;;;5079199;28;20011;-86
2023/12/01 09:38:04;;;;;;;;;;;-2.60;99.90;;;;;;5081152;28;20407;-86
2023/12/01 09:40:30;;;;;;;;;;;-2.60;99.90;;;;;;5077338;28;20038;-86
2023/12/01 09:42:56;;;;;;;;;;;-2.60;99.90;;;;;;5085268;28;20031;-87
2023/12/01 09:45:23;;;;;;;;;;;-2.50;99.90;;;;;;5083460;28;19927;-86
2023/12/01 09:47:54;;;;;;;;;;;-2.50;99.90;;;;;;5087822;28;19912;-87
2023/12/01 09:50:21;;;;;;;;;;;-2.50;99.90;;;;;;5088320;28;19995;-86
2023/12/01 09:52:46;;;;;;;;;;;-2.60;99.90;;;;;;5075568;28;19917;-86
2023/12/01 09:55:12;;;;;;;;;;;-2.60;99.90;;;;;;5087166;28;19941;-87
2023/12/01 09:57:38;;;;;;;;;;;-2.50;99.90;;;;;;5102101;28;20406;-87
2023/12/01 10:00:10;;;;;;;;;;;-2.50;99.90;;;;;;5089527;28;20549;-87
2023/12/01 10:02:36;;;;;;;;;;;-2.60;99.90;;;;;;5092415;28;19968;-87
2023/12/01 10:05:02;;;;;;;;;;;-2.50;99.90;;;;;;5100162;28;19916;-85
2023/12/01 10:07:29;;;;;;;;;;;-2.50;99.90;;;;;;5092755;28;19920;-87
2023/12/01 10:09:54;;;;;;;;;;;-2.50;99.90;;;;;;5079231;28;19916;-86
2023/12/01 10:12:20;;;;;;;;;;;-2.40;99.90;;;;;;5093598;28;20577;-86
2023/12/01 10:14:49;;;;;;;;;;;-2.40;99.90;;;;;;5091366;28;19916;-88
2023/12/01 10:17:14;;;;;;;;;;;-2.30;99.90;;;;;;5097587;28;19923;-88
2023/12/01 10:19:48;;;;;;;;;;;-2.30;99.90;;;;;;5109046;28;19912;-88
2023/12/01 10:22:19;;;;;;;;;;;-2.10;99.90;;;;;;5108172;28;19985;-88
2023/12/01 10:24:55;;;;;;;;;;;-2.00;99.90;;;;;;5090789;28;19965;-88
2023/12/01 10:27:20;;;;;;;;;;;-1.80;99.90;;;;;;5091523;28;19920;-87
2023/12/01 10:29:47;;;;;;;;;;;-1.80;99.90;;;;;;5117349;27;19939;-89
2023/12/01 10:32:13;;;;;;;;;;;-1.80;99.90;;;;;;5091339;28;20018;-88
2023/12/01 10:34:41;;;;;;;;;;;-1.70;99.90;;;;;;5089632;28;19916;-88
2023/12/01 10:37:06;;;;;;;;;;;-1.50;99.90;;;;;;5087961;28;19951;-86
2023/12/01 10:39:32;;;;;;;;;;;-1.50;99.90;;;;;;5090749;28;19985;-87
2023/12/01 10:41:58;;;;;;;;;;;-1.30;99.90;;;;;;5115142;27;19969;-86
2023/12/01 10:44:25;;;;;;;;;;;-1.10;99.90;;;;;;5090066;28;19923;-87
2023/12/01 10:46:51;;;;;;;;;;;-1.00;99.90;;;;;;5098364;28;19916;-86
2023/12/01 10:49:17;;;;;;;;;;;-1.00;99.90;;;;;;5091966;28;19916;-87
2023/12/01 10:51:46;;;;;;;;;;;-1.00;99.90;;;;;;5092288;28;19922;-86
2023/12/01 10:54:13;;;;;;;;;;;-1.10;99.90;;;;;;5096033;28;19912;-88
2023/12/01 10:56:47;;;;;;;;;;;-1.10;99.90;;;;;;5096701;28;19915;-88
2023/12/01 10:59:15;;;;;;;;;;;-1.20;99.90;;;;;;5108353;28;20264;-87
2023/12/01 11:01:41;;;;;;;;;;;-1.40;99.90;;;;;;5097255;28;20337;-87
2023/12/01 11:04:08;;;;;;;;;;;-1.40;99.90;;;;;;5099720;28;19965;-86
2023/12/01 11:06:46;;;;;;;;;;;-1.50;99.90;;;;;;5101544;28;19969;-88
2023/12/01 11:09:11;;;;;;;;;;;-1.60;99.90;;;;;;5106017;28;19916;-87
2023/12/01 11:12:12;;;;;;;;;;;-1.70;99.90;;;;;;5098100;28;20488;-86
2023/12/01 11:15:05;;;;;;;;;;;-1.70;99.90;;;;;;5034827;28;19925;-87
2023/12/01 11:18:06;;;;;;;;;;;-1.70;99.90;;;;;;5102617;27;19959;-87
2023/12/01 11:20:33;;;;;;;;;;;-1.70;99.90;;;;;;5090089;28;19965;-87
2023/12/01 11:23:02;;;;;;;;;;;-1.60;99.90;;;;;;5103147;28;19923;-83
2023/12/01 11:25:44;;;;;;;;;;;-1.60;99.90;;;;;;5092000;28;20369;-85
2023/12/01 11:31:02;;;;;;;;;;;-1.90;99.90;;;;;;5087287;28;19923;-84
2023/12/01 11:33:32;;;;;;;;;;;-1.90;99.90;;;;;;5091678;28;19912;-85
2023/12/01 11:36:16;;;;;;;;;;;-1.90;99.90;;;;;;5089345;28;19947;-85
2023/12/01 11:39:00;;;;;;;;;;;-1.90;99.90;;;;;;5090085;28;19916;-83
2023/12/01 11:41:26;;;;;;;;;;;-2.00;99.90;;;;;;5098337;28;20283;-85
2023/12/01 11:44:04;;;;;;;;;;;-1.90;99.90;;;;;;5093396;28;19913;-85
2023/12/01 11:46:29;;;;;;;;;;;-1.90;99.90;;;;;;5101096;28;20287;-85
2023/12/01 11:48:55;;;;;;;;;;;-1.90;99.90;;;;;;5075467;28;19920;-85
2023/12/01 11:51:53;;;;;;;;;;;-1.90;99.90;;;;;;5088001;28;20394;-85
2023/12/01 11:54:19;;;;;;;;;;;-1.80;99.90;;;;;;5129383;27;20300;-86
2023/12/01 11:56:46;;;;;;;;;;;-1.80;99.90;;;;;;5103617;28;19994;-86
2023/12/01 11:59:11;;;;;;;;;;;-1.80;99.90;;;;;;5102306;28;19915;-86
2023/12/01 12:01:37;;;;;;;;;;;-1.80;99.90;;;;;;5097541;28;19920;-85
2023/12/01 12:04:05;;;;;;;;;;;-1.70;99.90;;;;;;5098071;28;19981;-84
2023/12/01 12:06:32;;;;;;;;;;;-1.60;99.90;;;;;;5094768;28;19920;-84
2023/12/01 12:08:58;;;;;;;;;;;-1.70;99.90;;;;;;5092819;28;20290;-85
2023/12/01 12:11:24;;;;;;;;;;;-1.60;99.90;;;;;;5094668;28;19912;-85
2023/12/01 12:13:54;;;;;;;;;;;-1.60;99.90;;;;;;5089372;28;20043;-83
2023/12/01 12:16:20;;;;;;;;;;;-1.60;99.90;;;;;;5091210;28;20364;-83
2023/12/01 12:18:53;;;;;;;;;;;-1.60;99.90;;;;;;5091894;28;19923;-83
2023/12/01 12:21:18;;;;;;;;;;;-1.60;99.90;;;;;;5095536;28;19916;-84
2023/12/01 12:23:45;;;;;;;;;;;-1.50;99.90;;;;;;5097373;28;19946;-83
2023/12/01 12:26:23;;;;;;;;;;;-1.60;99.90;;;;;;5109840;28;19916;-84
2023/12/01 12:28:56;;;;;;;;;;;-1.50;99.90;;;;;;5095776;28;19912;-83
2023/12/01 12:31:25;;;;;;;;;;;-1.50;99.90;;;;;;5090995;28;19916;-83
2023/12/01 12:33:52;;;;;;;;;;;-1.50;99.90;;;;;;5090983;28;19993;-83
2023/12/01 12:36:17;;;;;;;;;;;-1.40;99.90;;;;;;5090384;28;19995;-83
2023/12/01 12:41:52;;;;;;;;;;;-1.50;99.90;;;;;;5036232;28;20479;-83
2023/12/01 12:44:18;;;;;;;;;;;-1.40;99.90;;;;;;5093105;28;19923;-83
2023/12/01 12:46:56;;;;;;;;;;;-1.40;99.90;;;;;;5093238;28;19913;-83
2023/12/01 12:49:21;;;;;;;;;;;-1.40;99.90;;;;;;5096186;28;20008;-84
2023/12/01 12:51:47;;;;;;;;;;;-1.40;99.90;;;;;;5099511;28;20574;-84
2023/12/01 12:54:12;;;;;;;;;;;-1.30;99.90;;;;;;5112687;28;19968;-84
2023/12/01 12:56:38;;;;;;;;;;;-1.30;99.90;;;;;;5099390;28;19926;-82
2023/12/01 12:59:04;;;;;;;;;;;-1.20;99.90;;;;;;5104263;28;19941;-84
2023/12/01 13:01:30;;;;;;;;;;;-1.30;99.90;;;;;;5105679;28;19923;-84
2023/12/01 13:03:56;;;;;;;;;;;-1.30;99.90;;;;;;5102487;28;19928;-85
2023/12/01 13:06:22;;;;;;;;;;;-1.30;99.90;;;;;;5106945;28;19913;-84
2023/12/01 13:08:48;;;;;;;;;;;-1.30;99.90;;;;;;5096794;28;19912;-83
2023/12/01 13:11:14;;;;;;;;;;;-1.30;99.90;;;;;;5093915;28;19916;-84
2023/12/01 13:13:40;;;;;;;;;;;-1.30;99.90;;;;;;5094022;28;19912;-84
2023/12/01 13:16:06;;;;;;;;;;;-1.30;99.90;;;;;;5101842;28;19924;-82
2023/12/01 13:18:34;;;;;;;;;;;-1.20;99.90;;;;;;5108734;28;19916;-83
2023/12/01 13:21:00;;;;;;;;;;;-1.20;99.90;;;;;;5102598;28;19935;-81
2023/12/01 13:23:25;;;;;;;;;;;-1.20;99.90;;;;;;5104939;28;20645;-82
2023/12/01 13:25:50;;;;;;;;;;;-1.20;99.90;;;;;;5093347;28;20292;-82
2023/12/01 13:28:16;;;;;;;;;;;-1.20;99.90;;;;;;5087430;28;19916;-83
2023/12/01 13:30:41;;;;;;;;;;;-1.20;99.90;;;;;;5097843;28;20441;-84
2023/12/01 13:33:07;;;;;;;;;;;-1.20;99.90;;;;;;5096839;28;20364;-86
2023/12/01 13:35:36;;;;;;;;;;;-1.30;99.90;;;;;;5094030;28;19923;-85
2023/12/01 13:38:02;;;;;;;;;;;-1.30;99.90;;;;;;5098035;28;19916;-85
2023/12/01 13:40:29;;;;;;;;;;;-1.30;99.90;;;;;;5089270;28;19916;-85
2023/12/01 13:42:55;;;;;;;;;;;-1.30;99.90;;;;;;5091856;28;19924;-83
2023/12/01 13:45:20;;;;;;;;;;;-1.30;99.90;;;;;;5091836;28;19930;-85
2023/12/01 13:47:46;;;;;;;;;;;-1.30;99.90;;;;;;5097527;28;19922;-85
2023/12/01 13:50:11;;;;;;;;;;;-1.30;99.90;;;;;;5092104;28;20540;-85
2023/12/01 13:52:37;;;;;;;;;;;-1.30;99.90;;;;;;5088185;28;19919;-85
2023/12/01 13:55:03;;;;;;;;;;;-1.30;99.90;;;;;;5092967;28;19922;-84
2023/12/01 13:57:28;;;;;;;;;;;-1.30;99.90;;;;;;5094147;28;19955;-84
2023/12/01 13:59:55;;;;;;;;;;;-1.30;99.90;;;;;;5093086;28;19960;-83
2023/12/01 14:02:21;;;;;;;;;;;-1.30;99.90;;;;;;5107743;28;19934;-85
2023/12/01 14:04:46;;;;;;;;;;;-1.30;99.90;;;;;;5111991;28;19915;-84
2023/12/01 14:07:12;;;;;;;;;;;-1.30;99.90;;;;;;5102790;28;19911;-85
2023/12/01 14:09:37;;;;;;;;;;;-1.30;99.90;;;;;;5102049;28;19916;-85
2023/12/01 14:12:06;;;;;;;;;;;-1.30;99.90;;;;;;5094468;28;19923;-84
2023/12/01 14:14:32;;;;;;;;;;;-1.30;99.90;;;;;;5094068;28;19954;-84
2023/12/01 14:16:57;;;;;;;;;;;-1.30;99.90;;;;;;5103243;28;19983;-86
2023/12/01 14:19:23;;;;;;;;;;;-1.30;99.90;;;;;;5104030;28;20346;-85